sensor_id;sensor_type;location;lat;lon;timestamp;temperature;humidity
16505;HTU21D;8365;51.030;4.696;2022-09-25T00:02:02;14.06;118.99
16505;HTU21D;8365;51.030;4.696;2022-09-25T00:04:35;13.98;118.99
16505;HTU21D;8365;51.030;4.696;2022-09-25T00:07:05;13.93;118.99
16505;HTU21D;8365;51.030;4.696;2022-09-25T00:09:36;14.05;118.99
16505;HTU21D;8365;51.030;4.696;2022-09-25T00:12:06;13.93;118.99
16505;HTU21D;8365;51.030;4.696;2022-09-25T00:14:39;13.81;118.99
16505;HTU21D;8365;51.030;4.696;2022-09-25T00:17:10;13.77;118.99
16505;HTU21D;8365;51.030;4.696;2022-09-25T00:19:42;13.69;118.99
16505;HTU21D;8365;51.030;4.696;2022-09-25T00:22:21;13.63;118.99
16505;HTU21D;8365;51.030;4.696;2022-09-25T00:24:51;13.71;118.99
16505;HTU21D;8365;51.030;4.696;2022-09-25T00:27:22;13.69;118.99
16505;HTU21D;8365;51.030;4.696;2022-09-25T00:29:52;13.66;118.99
16505;HTU21D;8365;51.030;4.696;2022-09-25T00:32:23;13.65;118.99
16505;HTU21D;8365;51.030;4.696;2022-09-25T00:34:53;13.69;118.99
16505;HTU21D;8365;51.030;4.696;2022-09-25T00:37:24;13.67;118.99
16505;HTU21D;8365;51.030;4.696;2022-09-25T00:39:57;13.70;118.99
16505;HTU21D;8365;51.030;4.696;2022-09-25T00:42:27;13.73;118.99
16505;HTU21D;8365;51.030;4.696;2022-09-25T00:45:08;13.78;118.99
16505;HTU21D;8365;51.030;4.696;2022-09-25T00:48:01;13.76;118.99
16505;HTU21D;8365;51.030;4.696;2022-09-25T00:50:35;13.67;118.99
16505;HTU21D;8365;51.030;4.696;2022-09-25T00:53:12;13.75;118.99
16505;HTU21D;8365;51.030;4.696;2022-09-25T00:55:44;13.71;118.99
16505;HTU21D;8365;51.030;4.696;2022-09-25T00:58:20;13.66;118.99
16505;HTU21D;8365;51.030;4.696;2022-09-25T01:00:52;13.59;118.99
16505;HTU21D;8365;51.030;4.696;2022-09-25T01:03:25;13.61;118.99
16505;HTU21D;8365;51.030;4.696;2022-09-25T01:05:56;13.54;118.99
16505;HTU21D;8365;51.030;4.696;2022-09-25T01:08:30;13.53;118.99
16505;HTU21D;8365;51.030;4.696;2022-09-25T01:11:01;13.56;118.99
16505;HTU21D;8365;51.030;4.696;2022-09-25T01:13:32;13.58;118.99
16505;HTU21D;8365;51.030;4.696;2022-09-25T01:16:22;13.49;118.99
16505;HTU21D;8365;51.030;4.696;2022-09-25T01:22:19;13.56;118.99
16505;HTU21D;8365;51.030;4.696;2022-09-25T01:25:03;13.47;118.99
16505;HTU21D;8365;51.030;4.696;2022-09-25T01:30:37;13.36;118.99
16505;HTU21D;8365;51.030;4.696;2022-09-25T01:33:15;13.33;118.99
16505;HTU21D;8365;51.030;4.696;2022-09-25T01:36:24;13.25;118.99
16505;HTU21D;8365;51.030;4.696;2022-09-25T01:39:19;13.21;118.99
16505;HTU21D;8365;51.030;4.696;2022-09-25T01:42:58;13.00;118.99
16505;HTU21D;8365;51.030;4.696;2022-09-25T01:45:06;12.97;118.99
16505;HTU21D;8365;51.030;4.696;2022-09-25T01:47:38;12.99;118.99
16505;HTU21D;8365;51.030;4.696;2022-09-25T01:50:17;12.96;118.99
16505;HTU21D;8365;51.030;4.696;2022-09-25T01:52:51;12.92;118.99
16505;HTU21D;8365;51.030;4.696;2022-09-25T01:55:38;12.82;118.99
16505;HTU21D;8365;51.030;4.696;2022-09-25T01:58:19;12.81;118.99
16505;HTU21D;8365;51.030;4.696;2022-09-25T02:00:58;12.76;118.99
16505;HTU21D;8365;51.030;4.696;2022-09-25T02:03:43;12.70;118.99
16505;HTU21D;8365;51.030;4.696;2022-09-25T02:06:18;12.67;118.99
16505;HTU21D;8365;51.030;4.696;2022-09-25T02:08:56;12.67;118.99
16505;HTU21D;8365;51.030;4.696;2022-09-25T02:11:38;12.58;118.99
16505;HTU21D;8365;51.030;4.696;2022-09-25T02:14:32;12.60;118.99
16505;HTU21D;8365;51.030;4.696;2022-09-25T02:17:06;12.57;118.99
16505;HTU21D;8365;51.030;4.696;2022-09-25T02:19:39;12.53;118.99
16505;HTU21D;8365;51.030;4.696;2022-09-25T02:22:30;12.52;118.99
16505;HTU21D;8365;51.030;4.696;2022-09-25T02:25:14;12.38;118.99
16505;HTU21D;8365;51.030;4.696;2022-09-25T02:27:49;12.43;118.99
16505;HTU21D;8365;51.030;4.696;2022-09-25T02:30:20;12.37;118.99
16505;HTU21D;8365;51.030;4.696;2022-09-25T02:32:50;12.41;118.99
16505;HTU21D;8365;51.030;4.696;2022-09-25T02:35:20;12.34;118.99
16505;HTU21D;8365;51.030;4.696;2022-09-25T02:37:55;12.33;118.99
16505;HTU21D;8365;51.030;4.696;2022-09-25T02:40:38;12.32;118.99
16505;HTU21D;8365;51.030;4.696;2022-09-25T02:48:57;12.22;118.99
16505;HTU21D;8365;51.030;4.696;2022-09-25T02:54:11;12.14;118.99
16505;HTU21D;8365;51.030;4.696;2022-09-25T02:56:52;12.14;118.99
16505;HTU21D;8365;51.030;4.696;2022-09-25T02:59:36;12.13;118.99
16505;HTU21D;8365;51.030;4.696;2022-09-25T03:02:10;12.02;118.99
16505;HTU21D;8365;51.030;4.696;2022-09-25T03:04:43;12.01;118.99
16505;HTU21D;8365;51.030;4.696;2022-09-25T03:07:15;12.01;118.99
16505;HTU21D;8365;51.030;4.696;2022-09-25T03:09:47;11.94;118.99
16505;HTU21D;8365;51.030;4.696;2022-09-25T03:12:19;11.98;118.99
16505;HTU21D;8365;51.030;4.696;2022-09-25T03:14:50;11.96;118.99
16505;HTU21D;8365;51.030;4.696;2022-09-25T03:17:20;11.91;118.99
16505;HTU21D;8365;51.030;4.696;2022-09-25T03:19:52;11.89;118.99
16505;HTU21D;8365;51.030;4.696;2022-09-25T03:22:23;11.87;118.99
16505;HTU21D;8365;51.030;4.696;2022-09-25T03:24:53;11.83;118.99
16505;HTU21D;8365;51.030;4.696;2022-09-25T03:27:23;11.85;118.99
16505;HTU21D;8365;51.030;4.696;2022-09-25T03:29:59;11.74;118.99
16505;HTU21D;8365;51.030;4.696;2022-09-25T03:32:31;11.74;118.99
16505;HTU21D;8365;51.030;4.696;2022-09-25T03:35:01;11.67;118.99
16505;HTU21D;8365;51.030;4.696;2022-09-25T03:37:32;11.60;118.99
16505;HTU21D;8365;51.030;4.696;2022-09-25T03:40:03;11.63;118.99
16505;HTU21D;8365;51.030;4.696;2022-09-25T03:42:33;11.49;118.99
16505;HTU21D;8365;51.030;4.696;2022-09-25T03:45:07;11.53;118.99
16505;HTU21D;8365;51.030;4.696;2022-09-25T03:47:40;11.53;118.99
16505;HTU21D;8365;51.030;4.696;2022-09-25T03:50:11;11.52;118.99
16505;HTU21D;8365;51.030;4.696;2022-09-25T03:52:41;11.48;118.99
16505;HTU21D;8365;51.030;4.696;2022-09-25T03:55:11;11.48;118.99
16505;HTU21D;8365;51.030;4.696;2022-09-25T03:57:42;11.43;118.99
16505;HTU21D;8365;51.030;4.696;2022-09-25T04:00:12;11.40;118.99
16505;HTU21D;8365;51.030;4.696;2022-09-25T04:02:43;11.38;118.99
16505;HTU21D;8365;51.030;4.696;2022-09-25T04:05:14;11.36;118.99
16505;HTU21D;8365;51.030;4.696;2022-09-25T04:07:44;11.27;118.99
16505;HTU21D;8365;51.030;4.696;2022-09-25T04:10:15;11.32;118.99
16505;HTU21D;8365;51.030;4.696;2022-09-25T04:12:45;11.37;118.99
16505;HTU21D;8365;51.030;4.696;2022-09-25T04:15:16;11.34;118.99
16505;HTU21D;8365;51.030;4.696;2022-09-25T04:17:47;11.33;118.99
16505;HTU21D;8365;51.030;4.696;2022-09-25T04:20:18;11.27;118.99
16505;HTU21D;8365;51.030;4.696;2022-09-25T04:22:48;11.29;118.99
16505;HTU21D;8365;51.030;4.696;2022-09-25T04:25:19;11.20;118.99
16505;HTU21D;8365;51.030;4.696;2022-09-25T04:27:55;11.15;118.99
16505;HTU21D;8365;51.030;4.696;2022-09-25T04:30:28;11.11;118.99
16505;HTU21D;8365;51.030;4.696;2022-09-25T04:32:58;11.07;118.99
16505;HTU21D;8365;51.030;4.696;2022-09-25T04:35:47;11.09;118.99
16505;HTU21D;8365;51.030;4.696;2022-09-25T04:38:18;11.02;118.99
16505;HTU21D;8365;51.030;4.696;2022-09-25T04:40:48;10.98;118.99
16505;HTU21D;8365;51.030;4.696;2022-09-25T04:43:19;11.01;118.99
16505;HTU21D;8365;51.030;4.696;2022-09-25T04:45:52;11.07;118.99
16505;HTU21D;8365;51.030;4.696;2022-09-25T04:48:22;10.95;118.99
16505;HTU21D;8365;51.030;4.696;2022-09-25T04:50:55;10.93;118.99
16505;HTU21D;8365;51.030;4.696;2022-09-25T04:53:28;10.83;118.99
16505;HTU21D;8365;51.030;4.696;2022-09-25T04:56:03;10.83;118.99
16505;HTU21D;8365;51.030;4.696;2022-09-25T04:58:34;10.75;118.99
16505;HTU21D;8365;51.030;4.696;2022-09-25T05:01:08;10.83;118.99
16505;HTU21D;8365;51.030;4.696;2022-09-25T05:03:38;10.80;118.99
16505;HTU21D;8365;51.030;4.696;2022-09-25T05:06:09;10.75;118.99
16505;HTU21D;8365;51.030;4.696;2022-09-25T05:08:39;10.73;118.99
16505;HTU21D;8365;51.030;4.696;2022-09-25T05:11:09;10.77;118.99
16505;HTU21D;8365;51.030;4.696;2022-09-25T05:13:43;10.79;118.99
16505;HTU21D;8365;51.030;4.696;2022-09-25T05:16:15;10.66;118.99
16505;HTU21D;8365;51.030;4.696;2022-09-25T05:18:46;10.71;118.99
16505;HTU21D;8365;51.030;4.696;2022-09-25T05:21:16;10.78;118.99
16505;HTU21D;8365;51.030;4.696;2022-09-25T05:23:47;10.84;118.99
16505;HTU21D;8365;51.030;4.696;2022-09-25T05:26:17;10.80;118.99
16505;HTU21D;8365;51.030;4.696;2022-09-25T05:28:48;10.81;118.99
16505;HTU21D;8365;51.030;4.696;2022-09-25T05:31:19;10.79;118.99
16505;HTU21D;8365;51.030;4.696;2022-09-25T05:33:50;10.85;118.99
16505;HTU21D;8365;51.030;4.696;2022-09-25T05:36:20;10.80;118.99
16505;HTU21D;8365;51.030;4.696;2022-09-25T05:38:54;10.84;118.99
16505;HTU21D;8365;51.030;4.696;2022-09-25T05:41:25;10.82;118.99
16505;HTU21D;8365;51.030;4.696;2022-09-25T05:43:55;10.84;118.99
16505;HTU21D;8365;51.030;4.696;2022-09-25T05:46:27;10.83;118.99
16505;HTU21D;8365;51.030;4.696;2022-09-25T05:48:57;10.89;118.99
16505;HTU21D;8365;51.030;4.696;2022-09-25T05:51:28;10.85;118.99
16505;HTU21D;8365;51.030;4.696;2022-09-25T05:53:58;10.85;118.99
16505;HTU21D;8365;51.030;4.696;2022-09-25T05:56:31;10.86;118.99
16505;HTU21D;8365;51.030;4.696;2022-09-25T05:59:02;10.83;118.99
16505;HTU21D;8365;51.030;4.696;2022-09-25T06:01:32;10.84;118.99
16505;HTU21D;8365;51.030;4.696;2022-09-25T06:04:03;10.81;118.99
16505;HTU21D;8365;51.030;4.696;2022-09-25T06:06:33;10.80;118.99
16505;HTU21D;8365;51.030;4.696;2022-09-25T06:09:04;10.84;118.99
16505;HTU21D;8365;51.030;4.696;2022-09-25T06:11:34;10.79;118.99
16505;HTU21D;8365;51.030;4.696;2022-09-25T06:14:04;10.74;118.99
16505;HTU21D;8365;51.030;4.696;2022-09-25T06:16:35;10.79;118.99
16505;HTU21D;8365;51.030;4.696;2022-09-25T06:19:05;10.73;118.99
16505;HTU21D;8365;51.030;4.696;2022-09-25T06:21:36;10.75;118.99
16505;HTU21D;8365;51.030;4.696;2022-09-25T06:24:07;10.75;118.99
16505;HTU21D;8365;51.030;4.696;2022-09-25T06:26:38;10.66;118.99
16505;HTU21D;8365;51.030;4.696;2022-09-25T06:29:08;10.81;118.99
16505;HTU21D;8365;51.030;4.696;2022-09-25T06:31:38;10.82;118.99
16505;HTU21D;8365;51.030;4.696;2022-09-25T06:34:10;10.93;118.99
16505;HTU21D;8365;51.030;4.696;2022-09-25T06:36:40;10.99;118.99
16505;HTU21D;8365;51.030;4.696;2022-09-25T06:39:11;11.04;118.99
16505;HTU21D;8365;51.030;4.696;2022-09-25T06:41:42;11.08;118.99
16505;HTU21D;8365;51.030;4.696;2022-09-25T06:44:14;11.10;118.99
16505;HTU21D;8365;51.030;4.696;2022-09-25T06:46:49;11.11;118.99
16505;HTU21D;8365;51.030;4.696;2022-09-25T06:49:20;11.12;118.99
16505;HTU21D;8365;51.030;4.696;2022-09-25T06:51:50;11.11;118.99
16505;HTU21D;8365;51.030;4.696;2022-09-25T06:54:21;11.27;118.99
16505;HTU21D;8365;51.030;4.696;2022-09-25T06:56:51;11.43;118.99
16505;HTU21D;8365;51.030;4.696;2022-09-25T06:59:22;11.46;118.99
16505;HTU21D;8365;51.030;4.696;2022-09-25T07:01:54;11.61;118.99
16505;HTU21D;8365;51.030;4.696;2022-09-25T07:04:44;11.70;118.99
16505;HTU21D;8365;51.030;4.696;2022-09-25T07:07:15;11.82;118.99
16505;HTU21D;8365;51.030;4.696;2022-09-25T07:09:48;11.40;118.99
16505;HTU21D;8365;51.030;4.696;2022-09-25T07:12:19;11.70;118.99
16505;HTU21D;8365;51.030;4.696;2022-09-25T07:14:53;11.90;118.99
16505;HTU21D;8365;51.030;4.696;2022-09-25T07:17:23;12.04;118.99
16505;HTU21D;8365;51.030;4.696;2022-09-25T07:19:54;11.94;118.99
16505;HTU21D;8365;51.030;4.696;2022-09-25T07:22:24;12.10;118.99
16505;HTU21D;8365;51.030;4.696;2022-09-25T07:24:55;12.22;118.99
16505;HTU21D;8365;51.030;4.696;2022-09-25T07:27:25;12.25;118.99
16505;HTU21D;8365;51.030;4.696;2022-09-25T07:29:56;12.34;118.99
16505;HTU21D;8365;51.030;4.696;2022-09-25T07:32:26;12.70;118.99
16505;HTU21D;8365;51.030;4.696;2022-09-25T07:34:57;13.22;118.99
16505;HTU21D;8365;51.030;4.696;2022-09-25T07:37:27;13.71;118.99
16505;HTU21D;8365;51.030;4.696;2022-09-25T07:39:58;14.42;118.99
16505;HTU21D;8365;51.030;4.696;2022-09-25T07:42:29;15.00;118.99
16505;HTU21D;8365;51.030;4.696;2022-09-25T07:44:59;15.74;118.99
16505;HTU21D;8365;51.030;4.696;2022-09-25T07:47:30;16.57;118.99
16505;HTU21D;8365;51.030;4.696;2022-09-25T07:50:00;17.06;118.99
16505;HTU21D;8365;51.030;4.696;2022-09-25T07:52:31;17.48;116.92
16505;HTU21D;8365;51.030;4.696;2022-09-25T07:55:01;18.04;114.11
16505;HTU21D;8365;51.030;4.696;2022-09-25T07:57:31;18.08;112.62
16505;HTU21D;8365;51.030;4.696;2022-09-25T08:00:03;18.81;110.97
16505;HTU21D;8365;51.030;4.696;2022-09-25T08:02:35;19.10;104.36
16505;HTU21D;8365;51.030;4.696;2022-09-25T08:05:05;19.02;102.05
16505;HTU21D;8365;51.030;4.696;2022-09-25T08:07:36;19.41;103.74
16505;HTU21D;8365;51.030;4.696;2022-09-25T08:10:09;19.70;101.21
16505;HTU21D;8365;51.030;4.696;2022-09-25T08:12:39;20.21;97.45
16505;HTU21D;8365;51.030;4.696;2022-09-25T08:15:10;20.50;96.82
16505;HTU21D;8365;51.030;4.696;2022-09-25T08:17:43;21.00;95.48
16505;HTU21D;8365;51.030;4.696;2022-09-25T08:20:14;20.81;93.19
16505;HTU21D;8365;51.030;4.696;2022-09-25T08:22:44;21.20;91.29
16505;HTU21D;8365;51.030;4.696;2022-09-25T08:25:15;21.36;90.82
16505;HTU21D;8365;51.030;4.696;2022-09-25T08:27:46;21.77;87.66
16505;HTU21D;8365;51.030;4.696;2022-09-25T08:30:16;22.32;86.87
16505;HTU21D;8365;51.030;4.696;2022-09-25T08:32:47;22.39;83.68
16505;HTU21D;8365;51.030;4.696;2022-09-25T08:35:17;22.34;81.52
16505;HTU21D;8365;51.030;4.696;2022-09-25T08:37:48;22.81;80.30
16505;HTU21D;8365;51.030;4.696;2022-09-25T08:40:21;23.00;77.64
16505;HTU21D;8365;51.030;4.696;2022-09-25T08:42:54;23.10;77.31
16505;HTU21D;8365;51.030;4.696;2022-09-25T08:45:33;22.88;78.23
16505;HTU21D;8365;51.030;4.696;2022-09-25T08:48:29;23.22;74.19
16505;HTU21D;8365;51.030;4.696;2022-09-25T08:51:20;23.31;73.12
16505;HTU21D;8365;51.030;4.696;2022-09-25T08:53:50;23.43;70.93
16505;HTU21D;8365;51.030;4.696;2022-09-25T08:56:21;23.72;70.90
16505;HTU21D;8365;51.030;4.696;2022-09-25T09:01:48;23.55;70.98
16505;HTU21D;8365;51.030;4.696;2022-09-25T09:07:25;24.28;64.11
16505;HTU21D;8365;51.030;4.696;2022-09-25T09:10:33;24.44;62.34
16505;HTU21D;8365;51.030;4.696;2022-09-25T09:13:10;24.62;63.79
16505;HTU21D;8365;51.030;4.696;2022-09-25T09:15:51;24.60;62.85
16505;HTU21D;8365;51.030;4.696;2022-09-25T09:18:25;23.84;63.28
16505;HTU21D;8365;51.030;4.696;2022-09-25T09:21:01;22.84;67.49
16505;HTU21D;8365;51.030;4.696;2022-09-25T09:23:41;21.85;72.53
16505;HTU21D;8365;51.030;4.696;2022-09-25T09:26:19;21.27;75.11
16505;HTU21D;8365;51.030;4.696;2022-09-25T09:29:15;20.59;78.44
16505;HTU21D;8365;51.030;4.696;2022-09-25T09:40:23;19.01;84.26
16505;HTU21D;8365;51.030;4.696;2022-09-25T09:45:47;18.42;87.09
16505;HTU21D;8365;51.030;4.696;2022-09-25T09:51:30;17.67;91.90
16505;HTU21D;8365;51.030;4.696;2022-09-25T09:54:19;17.75;93.61
16505;HTU21D;8365;51.030;4.696;2022-09-25T09:56:51;17.74;95.65
16505;HTU21D;8365;51.030;4.696;2022-09-25T09:59:28;17.74;94.06
16505;HTU21D;8365;51.030;4.696;2022-09-25T10:02:04;17.44;95.43
16505;HTU21D;8365;51.030;4.696;2022-09-25T10:04:39;17.47;94.67
16505;HTU21D;8365;51.030;4.696;2022-09-25T10:07:14;17.41;93.81
16505;HTU21D;8365;51.030;4.696;2022-09-25T10:09:48;17.40;93.59
16505;HTU21D;8365;51.030;4.696;2022-09-25T10:12:32;17.59;93.81
16505;HTU21D;8365;51.030;4.696;2022-09-25T10:15:13;17.77;93.36
16505;HTU21D;8365;51.030;4.696;2022-09-25T10:17:44;17.58;90.26
16505;HTU21D;8365;51.030;4.696;2022-09-25T10:20:21;17.92;92.04
16505;HTU21D;8365;51.030;4.696;2022-09-25T10:22:53;18.23;91.07
16505;HTU21D;8365;51.030;4.696;2022-09-25T10:25:36;19.67;85.42
16505;HTU21D;8365;51.030;4.696;2022-09-25T10:28:28;21.06;74.98
16505;HTU21D;8365;51.030;4.696;2022-09-25T10:30:59;21.19;73.19
16505;HTU21D;8365;51.030;4.696;2022-09-25T10:33:31;20.80;73.35
16505;HTU21D;8365;51.030;4.696;2022-09-25T10:36:02;20.89;74.65
16505;HTU21D;8365;51.030;4.696;2022-09-25T10:38:44;21.96;69.35
16505;HTU21D;8365;51.030;4.696;2022-09-25T10:41:18;22.97;67.83
16505;HTU21D;8365;51.030;4.696;2022-09-25T10:43:57;24.70;60.60
16505;HTU21D;8365;51.030;4.696;2022-09-25T10:46:33;26.18;53.10
16505;HTU21D;8365;51.030;4.696;2022-09-25T10:49:45;26.12;47.29
16505;HTU21D;8365;51.030;4.696;2022-09-25T10:55:24;27.73;43.22
16505;HTU21D;8365;51.030;4.696;2022-09-25T11:00:53;28.08;39.35
16505;HTU21D;8365;51.030;4.696;2022-09-25T11:03:31;27.79;42.05
16505;HTU21D;8365;51.030;4.696;2022-09-25T11:06:21;27.08;44.25
16505;HTU21D;8365;51.030;4.696;2022-09-25T11:09:03;25.92;46.44
16505;HTU21D;8365;51.030;4.696;2022-09-25T11:11:35;24.51;48.01
16505;HTU21D;8365;51.030;4.696;2022-09-25T11:14:16;23.83;52.72
16505;HTU21D;8365;51.030;4.696;2022-09-25T11:16:53;24.25;50.94
16505;HTU21D;8365;51.030;4.696;2022-09-25T11:22:32;24.42;49.37
16505;HTU21D;8365;51.030;4.696;2022-09-25T11:25:20;24.38;49.36
16505;HTU21D;8365;51.030;4.696;2022-09-25T11:27:59;22.70;56.68
16505;HTU21D;8365;51.030;4.696;2022-09-25T11:30:50;22.12;63.99
16505;HTU21D;8365;51.030;4.696;2022-09-25T11:36:31;20.69;71.78
16505;HTU21D;8365;51.030;4.696;2022-09-25T11:39:08;19.65;76.73
16505;HTU21D;8365;51.030;4.696;2022-09-25T11:42:06;21.43;70.26
16505;HTU21D;8365;51.030;4.696;2022-09-25T11:45:01;22.94;61.02
16505;HTU21D;8365;51.030;4.696;2022-09-25T11:47:41;24.18;52.16
16505;HTU21D;8365;51.030;4.696;2022-09-25T11:50:14;25.46;48.72
16505;HTU21D;8365;51.030;4.696;2022-09-25T11:55:39;24.41;50.44
16505;HTU21D;8365;51.030;4.696;2022-09-25T12:03:49;23.39;55.87
16505;HTU21D;8365;51.030;4.696;2022-09-25T12:17:51;21.42;59.26
16505;HTU21D;8365;51.030;4.696;2022-09-25T12:20:36;21.13;60.35
16505;HTU21D;8365;51.030;4.696;2022-09-25T12:23:42;22.33;62.65
16505;HTU21D;8365;51.030;4.696;2022-09-25T12:26:24;23.91;57.29
16505;HTU21D;8365;51.030;4.696;2022-09-25T12:32:08;25.56;47.67
16505;HTU21D;8365;51.030;4.696;2022-09-25T12:34:48;25.88;44.97
16505;HTU21D;8365;51.030;4.696;2022-09-25T12:37:33;27.09;43.98
16505;HTU21D;8365;51.030;4.696;2022-09-25T12:40:36;26.42;44.39
16505;HTU21D;8365;51.030;4.696;2022-09-25T12:43:21;25.47;43.51
16505;HTU21D;8365;51.030;4.696;2022-09-25T12:46:07;24.66;45.76
16505;HTU21D;8365;51.030;4.696;2022-09-25T12:51:42;24.69;49.22
16505;HTU21D;8365;51.030;4.696;2022-09-25T12:54:26;24.25;51.40
16505;HTU21D;8365;51.030;4.696;2022-09-25T12:57:22;23.21;56.01
16505;HTU21D;8365;51.030;4.696;2022-09-25T12:59:59;23.55;56.36
16505;HTU21D;8365;51.030;4.696;2022-09-25T13:02:42;22.81;56.86
16505;HTU21D;8365;51.030;4.696;2022-09-25T13:08:08;22.41;60.60
16505;HTU21D;8365;51.030;4.696;2022-09-25T13:11:05;22.52;62.29
16505;HTU21D;8365;51.030;4.696;2022-09-25T13:13:47;22.35;59.88
16505;HTU21D;8365;51.030;4.696;2022-09-25T13:16:18;22.42;58.68
16505;HTU21D;8365;51.030;4.696;2022-09-25T13:19:22;22.49;58.41
16505;HTU21D;8365;51.030;4.696;2022-09-25T13:22:21;22.72;57.15
16505;HTU21D;8365;51.030;4.696;2022-09-25T13:25:03;23.47;55.02
16505;HTU21D;8365;51.030;4.696;2022-09-25T13:27:40;25.13;50.68
16505;HTU21D;8365;51.030;4.696;2022-09-25T13:30:23;26.70;47.69
16505;HTU21D;8365;51.030;4.696;2022-09-25T13:33:00;27.28;43.87
16505;HTU21D;8365;51.030;4.696;2022-09-25T13:35:34;28.28;39.37
16505;HTU21D;8365;51.030;4.696;2022-09-25T13:38:13;29.46;35.83
16505;HTU21D;8365;51.030;4.696;2022-09-25T13:41:10;30.17;35.02
16505;HTU21D;8365;51.030;4.696;2022-09-25T13:43:40;30.54;35.89
16505;HTU21D;8365;51.030;4.696;2022-09-25T13:48:51;28.91;35.85
16505;HTU21D;8365;51.030;4.696;2022-09-25T13:53:53;28.80;39.01
16505;HTU21D;8365;51.030;4.696;2022-09-25T14:04:54;29.87;35.21
16505;HTU21D;8365;51.030;4.696;2022-09-25T14:07:25;29.80;33.52
16505;HTU21D;8365;51.030;4.696;2022-09-25T14:09:59;29.06;35.50
16505;HTU21D;8365;51.030;4.696;2022-09-25T14:12:42;28.74;35.71
16505;HTU21D;8365;51.030;4.696;2022-09-25T14:17:52;29.72;36.72
16505;HTU21D;8365;51.030;4.696;2022-09-25T14:20:35;29.31;34.73
16505;HTU21D;8365;51.030;4.696;2022-09-25T14:25:45;29.50;35.38
16505;HTU21D;8365;51.030;4.696;2022-09-25T14:28:20;28.89;34.08
16505;HTU21D;8365;51.030;4.696;2022-09-25T14:31:11;27.30;38.92
16505;HTU21D;8365;51.030;4.696;2022-09-25T14:37:14;28.80;37.27
16505;HTU21D;8365;51.030;4.696;2022-09-25T14:48:21;31.97;29.75
16505;HTU21D;8365;51.030;4.696;2022-09-25T14:50:56;31.59;31.69
16505;HTU21D;8365;51.030;4.696;2022-09-25T14:53:32;31.85;29.77
16505;HTU21D;8365;51.030;4.696;2022-09-25T14:56:05;32.53;29.70
16505;HTU21D;8365;51.030;4.696;2022-09-25T14:58:50;31.81;31.55
16505;HTU21D;8365;51.030;4.696;2022-09-25T15:01:31;32.53;30.71
16505;HTU21D;8365;51.030;4.696;2022-09-25T15:04:05;32.41;29.87
16505;HTU21D;8365;51.030;4.696;2022-09-25T15:06:38;32.68;29.55
16505;HTU21D;8365;51.030;4.696;2022-09-25T15:09:38;31.68;31.61
16505;HTU21D;8365;51.030;4.696;2022-09-25T15:15:12;28.92;33.64
16505;HTU21D;8365;51.030;4.696;2022-09-25T15:20:22;26.82;38.49
16505;HTU21D;8365;51.030;4.696;2022-09-25T15:23:04;26.51;40.65
16505;HTU21D;8365;51.030;4.696;2022-09-25T15:25:41;25.71;42.00
16505;HTU21D;8365;51.030;4.696;2022-09-25T15:28:15;25.44;43.84
16505;HTU21D;8365;51.030;4.696;2022-09-25T15:30:55;25.21;45.85
16505;HTU21D;8365;51.030;4.696;2022-09-25T15:33:29;25.04;45.38
16505;HTU21D;8365;51.030;4.696;2022-09-25T15:36:08;24.60;46.78
16505;HTU21D;8365;51.030;4.696;2022-09-25T15:38:39;24.41;47.31
16505;HTU21D;8365;51.030;4.696;2022-09-25T15:41:13;23.79;53.08
16505;HTU21D;8365;51.030;4.696;2022-09-25T15:43:47;23.84;51.11
16505;HTU21D;8365;51.030;4.696;2022-09-25T15:48:58;23.26;54.92
16505;HTU21D;8365;51.030;4.696;2022-09-25T15:51:31;23.25;53.78
16505;HTU21D;8365;51.030;4.696;2022-09-25T15:57:00;22.98;55.88
16505;HTU21D;8365;51.030;4.696;2022-09-25T15:59:37;22.78;56.54
16505;HTU21D;8365;51.030;4.696;2022-09-25T16:02:30;22.62;57.98
16505;HTU21D;8365;51.030;4.696;2022-09-25T16:05:27;22.19;57.77
16505;HTU21D;8365;51.030;4.696;2022-09-25T16:08:34;21.63;61.70
16505;HTU21D;8365;51.030;4.696;2022-09-25T16:11:22;21.35;61.75
16505;HTU21D;8365;51.030;4.696;2022-09-25T16:14:26;21.30;61.81
16505;HTU21D;8365;51.030;4.696;2022-09-25T16:17:00;21.02;63.77
16505;HTU21D;8365;51.030;4.696;2022-09-25T16:19:32;20.87;64.98
16505;HTU21D;8365;51.030;4.696;2022-09-25T16:22:18;20.93;66.11
16505;HTU21D;8365;51.030;4.696;2022-09-25T16:24:52;20.96;65.78
16505;HTU21D;8365;51.030;4.696;2022-09-25T16:27:31;20.70;66.36
16505;HTU21D;8365;51.030;4.696;2022-09-25T16:30:02;20.96;65.48
16505;HTU21D;8365;51.030;4.696;2022-09-25T16:32:32;20.94;65.20
16505;HTU21D;8365;51.030;4.696;2022-09-25T16:35:05;20.87;64.98
16505;HTU21D;8365;51.030;4.696;2022-09-25T16:37:36;20.86;64.82
16505;HTU21D;8365;51.030;4.696;2022-09-25T16:42:55;20.76;67.18
16505;HTU21D;8365;51.030;4.696;2022-09-25T16:45:29;20.79;66.10
16505;HTU21D;8365;51.030;4.696;2022-09-25T16:48:26;20.53;68.48
16505;HTU21D;8365;51.030;4.696;2022-09-25T16:50:58;20.66;67.55
16505;HTU21D;8365;51.030;4.696;2022-09-25T16:53:33;20.54;68.74
16505;HTU21D;8365;51.030;4.696;2022-09-25T16:56:04;20.29;68.90
16505;HTU21D;8365;51.030;4.696;2022-09-25T16:58:37;20.39;68.94
16505;HTU21D;8365;51.030;4.696;2022-09-25T17:01:08;20.35;69.84
16505;HTU21D;8365;51.030;4.696;2022-09-25T17:03:38;20.14;72.51
16505;HTU21D;8365;51.030;4.696;2022-09-25T17:06:23;20.02;74.48
16505;HTU21D;8365;51.030;4.696;2022-09-25T17:08:57;19.76;77.08
16505;HTU21D;8365;51.030;4.696;2022-09-25T17:11:28;19.74;77.83
16505;HTU21D;8365;51.030;4.696;2022-09-25T17:13:58;19.61;76.77
16505;HTU21D;8365;51.030;4.696;2022-09-25T17:16:29;19.38;78.69
16505;HTU21D;8365;51.030;4.696;2022-09-25T17:19:00;19.32;78.89
16505;HTU21D;8365;51.030;4.696;2022-09-25T17:21:30;19.18;79.19
16505;HTU21D;8365;51.030;4.696;2022-09-25T17:24:03;19.22;80.71
16505;HTU21D;8365;51.030;4.696;2022-09-25T17:26:33;19.20;80.26
16505;HTU21D;8365;51.030;4.696;2022-09-25T17:29:05;18.91;81.88
16505;HTU21D;8365;51.030;4.696;2022-09-25T17:31:36;18.79;83.36
16505;HTU21D;8365;51.030;4.696;2022-09-25T17:34:29;18.65;85.71
16505;HTU21D;8365;51.030;4.696;2022-09-25T17:37:00;18.69;84.53
16505;HTU21D;8365;51.030;4.696;2022-09-25T17:39:30;18.56;85.73
16505;HTU21D;8365;51.030;4.696;2022-09-25T17:42:01;18.55;86.14
16505;HTU21D;8365;51.030;4.696;2022-09-25T17:44:32;18.42;86.54
16505;HTU21D;8365;51.030;4.696;2022-09-25T17:47:06;17.98;88.86
16505;HTU21D;8365;51.030;4.696;2022-09-25T17:49:37;17.75;91.82
16505;HTU21D;8365;51.030;4.696;2022-09-25T17:52:13;17.81;94.07
16505;HTU21D;8365;51.030;4.696;2022-09-25T17:54:45;17.61;95.54
16505;HTU21D;8365;51.030;4.696;2022-09-25T17:57:15;17.53;95.53
16505;HTU21D;8365;51.030;4.696;2022-09-25T17:59:46;17.28;96.23
16505;HTU21D;8365;51.030;4.696;2022-09-25T18:02:16;17.15;97.09
16505;HTU21D;8365;51.030;4.696;2022-09-25T18:04:47;17.23;96.18
16505;HTU21D;8365;51.030;4.696;2022-09-25T18:07:17;17.43;95.43
16505;HTU21D;8365;51.030;4.696;2022-09-25T18:09:47;17.55;95.30
16505;HTU21D;8365;51.030;4.696;2022-09-25T18:12:18;17.56;95.67
16505;HTU21D;8365;51.030;4.696;2022-09-25T18:14:48;17.60;95.48
16505;HTU21D;8365;51.030;4.696;2022-09-25T18:17:20;17.33;97.84